createdAt,value
2018-10-06T00:00:31.205Z,55.50
2018-10-06T00:02:58.910Z,55.50
2018-10-06T00:05:26.610Z,55.60
2018-10-06T00:07:54.291Z,55.70
2018-10-06T00:10:21.988Z,55.70
2018-10-06T00:12:49.694Z,55.60
2018-10-06T00:15:17.364Z,55.90
2018-10-06T00:17:45.065Z,55.90
2018-10-06T00:20:12.739Z,55.90
2018-10-06T00:22:40.440Z,56.10
2018-10-06T00:25:08.108Z,55.90
2018-10-06T00:27:35.837Z,56.00
2018-10-06T00:30:03.533Z,56.20
2018-10-06T00:32:31.249Z,56.00
2018-10-06T00:34:58.926Z,56.20
2018-10-06T00:37:26.621Z,56.30
2018-10-06T00:39:54.307Z,56.30
2018-10-06T00:42:22.009Z,56.30
2018-10-06T00:44:49.712Z,56.30
2018-10-06T00:47:17.390Z,56.30
2018-10-06T00:49:45.113Z,56.40
2018-10-06T00:52:12.816Z,56.20
2018-10-06T00:56:09.797Z,56.30
2018-10-06T00:58:37.517Z,56.40
2018-10-06T01:01:05.234Z,56.40
2018-10-06T01:03:32.992Z,57.60
2018-10-06T01:06:00.685Z,57.50
2018-10-06T01:08:28.489Z,58.30
2018-10-06T01:10:56.201Z,59.20
2018-10-06T01:13:23.905Z,59.90
2018-10-06T01:15:51.592Z,60.60
2018-10-06T01:18:19.353Z,62.00
2018-10-06T01:20:47.053Z,62.60
2018-10-06T01:23:15.349Z,63.60
2018-10-06T01:25:43.049Z,63.90
2018-10-06T01:28:10.753Z,64.60
2018-10-06T01:30:38.504Z,65.10
2018-10-06T01:33:06.238Z,65.40
2018-10-06T01:35:33.961Z,66.10
2018-10-06T01:38:01.743Z,66.50
2018-10-06T01:40:29.457Z,67.10
2018-10-06T01:42:57.125Z,67.30
2018-10-06T01:45:24.837Z,68.10
2018-10-06T01:47:52.509Z,68.20
2018-10-06T01:50:20.212Z,68.90
2018-10-06T01:52:47.912Z,68.70
2018-10-06T01:55:15.626Z,69.50
2018-10-06T01:57:43.297Z,70.10
2018-10-06T02:00:11.013Z,71.30
2018-10-06T02:02:38.697Z,72.70
2018-10-06T02:05:06.456Z,72.60
2018-10-06T02:07:34.157Z,73.50
2018-10-06T02:10:01.845Z,74.80
2018-10-06T02:12:29.554Z,75.20
2018-10-06T02:14:57.220Z,76.20
2018-10-06T02:17:24.948Z,77.50
2018-10-06T02:19:52.620Z,78.10
2018-10-06T02:22:20.325Z,78.50
2018-10-06T02:24:48.017Z,78.80
2018-10-06T02:27:15.692Z,79.70
2018-10-06T02:29:43.398Z,79.20
2018-10-06T02:32:11.052Z,79.80
2018-10-06T02:34:38.758Z,80.40
2018-10-06T02:37:06.450Z,80.70
2018-10-06T02:39:34.162Z,81.10
2018-10-06T02:42:01.865Z,81.40
2018-10-06T02:44:29.590Z,82.70
2018-10-06T02:46:57.299Z,83.30
2018-10-06T02:49:24.973Z,82.60
2018-10-06T02:51:52.781Z,82.40
2018-10-06T02:54:20.492Z,83.80
2018-10-06T02:56:48.212Z,84.00
2018-10-06T02:59:15.920Z,85.10
2018-10-06T03:01:43.641Z,84.00
2018-10-06T03:04:11.317Z,85.80
2018-10-06T03:06:39.025Z,86.50
2018-10-06T03:09:07.081Z,87.00
2018-10-06T03:11:34.901Z,88.10
2018-10-06T03:14:02.612Z,88.80
2018-10-06T03:16:30.292Z,89.20
2018-10-06T03:18:57.997Z,88.30
2018-10-06T03:21:25.686Z,89.40
2018-10-06T03:23:53.400Z,90.00
2018-10-06T03:26:21.178Z,90.00
2018-10-06T03:28:48.849Z,90.70
2018-10-06T03:31:16.749Z,90.60
2018-10-06T03:33:44.487Z,90.40
2018-10-06T03:36:12.189Z,90.80
2018-10-06T03:38:39.873Z,91.30
2018-10-06T03:41:07.577Z,91.10
2018-10-06T03:43:35.297Z,91.10
2018-10-06T03:46:03.005Z,91.80
2018-10-06T03:48:30.673Z,92.20
2018-10-06T03:50:58.353Z,91.80
2018-10-06T03:53:26.077Z,92.80
2018-10-06T03:55:53.741Z,91.30
2018-10-06T03:58:21.491Z,92.10
2018-10-06T04:00:49.165Z,92.40
2018-10-06T04:03:16.869Z,93.10
2018-10-06T04:05:44.619Z,92.30
2018-10-06T04:08:12.322Z,92.60
2018-10-06T04:10:40.000Z,93.90
2018-10-06T04:13:08.050Z,93.50
2018-10-06T04:15:35.789Z,94.90
2018-10-06T04:18:03.537Z,95.10
2018-10-06T04:20:31.206Z,95.00
2018-10-06T04:22:58.922Z,95.80
2018-10-06T04:25:26.592Z,96.80
2018-10-06T04:27:54.359Z,97.90
2018-10-06T04:30:21.990Z,97.80
2018-10-06T04:32:49.680Z,96.40
2018-10-06T04:35:17.351Z,96.80
2018-10-06T04:37:45.120Z,95.30
2018-10-06T04:40:12.833Z,95.90
2018-10-06T04:42:40.517Z,97.50
2018-10-06T04:45:08.184Z,96.80
2018-10-06T04:47:35.988Z,96.50
2018-10-06T04:50:04.045Z,97.30
2018-10-06T04:52:31.745Z,97.30
2018-10-06T04:54:59.446Z,97.50
2018-10-06T04:57:27.201Z,96.20
2018-10-06T04:59:55.000Z,97.50
2018-10-06T05:02:22.780Z,97.80
2018-10-06T05:04:50.446Z,97.90
2018-10-06T05:07:18.121Z,97.70
2018-10-06T05:09:45.833Z,97.20
2018-10-06T05:12:13.549Z,97.20
2018-10-06T05:14:41.213Z,98.70
2018-10-06T05:17:08.921Z,97.20
2018-10-06T05:19:36.621Z,96.40
2018-10-06T05:22:04.347Z,97.50
2018-10-06T05:24:32.187Z,97.60
2018-10-06T05:26:59.908Z,97.50
2018-10-06T05:29:27.619Z,97.20
2018-10-06T05:31:55.303Z,98.40
2018-10-06T05:34:22.966Z,98.80
2018-10-06T05:36:50.883Z,98.20
2018-10-06T05:39:18.554Z,99.30
2018-10-06T05:41:46.293Z,99.20
2018-10-06T05:44:13.971Z,99.90
2018-10-06T05:46:41.649Z,99.30
2018-10-06T05:49:09.354Z,99.60
2018-10-06T05:51:37.021Z,99.90
2018-10-06T05:54:04.720Z,99.60
2018-10-06T05:56:32.422Z,99.80
2018-10-06T05:59:00.634Z,99.80
2018-10-06T06:01:28.602Z,99.10
2018-10-06T06:03:56.496Z,97.90
2018-10-06T06:06:24.219Z,98.70
2018-10-06T06:08:51.882Z,99.30
2018-10-06T06:11:19.685Z,98.80
2018-10-06T06:13:47.347Z,98.90
2018-10-06T06:16:15.025Z,99.00
2018-10-06T06:18:42.752Z,99.10
2018-10-06T06:21:10.463Z,98.00
2018-10-06T06:23:38.165Z,98.70
2018-10-06T06:26:05.937Z,97.70
2018-10-06T06:28:33.647Z,99.30
2018-10-06T06:31:01.649Z,97.90
2018-10-06T06:33:29.317Z,98.10
2018-10-06T06:35:57.017Z,97.20
2018-10-06T06:38:24.766Z,97.40
2018-10-06T06:40:52.412Z,96.30
2018-10-06T06:43:20.143Z,98.20
2018-10-06T06:45:48.111Z,96.70
2018-10-06T06:48:15.879Z,96.70
2018-10-06T06:50:43.589Z,97.30
2018-10-06T06:53:11.260Z,97.80
2018-10-06T06:55:39.009Z,97.40
2018-10-06T06:58:06.726Z,95.30
2018-10-06T07:00:34.440Z,96.60
2018-10-06T07:03:02.221Z,97.10
2018-10-06T07:05:29.943Z,95.30
2018-10-06T07:07:57.701Z,93.90
2018-10-06T07:10:25.816Z,94.20
2018-10-06T07:12:53.731Z,93.70
2018-10-06T07:15:21.449Z,93.70
2018-10-06T07:17:49.165Z,93.50
2018-10-06T07:20:16.917Z,93.40
2018-10-06T07:22:44.600Z,92.50
2018-10-06T07:25:12.304Z,93.00
2018-10-06T07:27:39.963Z,93.10
2018-10-06T07:30:07.821Z,92.30
2018-10-06T07:32:35.804Z,92.80
2018-10-06T07:35:03.616Z,92.90
2018-10-06T07:37:31.614Z,92.20
2018-10-06T07:39:59.483Z,91.70
2018-10-06T07:42:27.189Z,92.70
2018-10-06T07:44:55.118Z,92.50
2018-10-06T07:47:22.772Z,92.20
2018-10-06T07:49:50.561Z,89.70
2018-10-06T07:52:18.242Z,88.50
2018-10-06T07:54:46.074Z,87.70
2018-10-06T07:57:13.773Z,86.60
2018-10-06T07:59:41.489Z,86.80
2018-10-06T08:02:09.196Z,87.00
2018-10-06T08:04:36.936Z,83.90
2018-10-06T08:07:04.625Z,83.40
2018-10-06T08:09:32.353Z,82.70
2018-10-06T08:12:00.069Z,82.50
2018-10-06T08:14:27.776Z,81.90
2018-10-06T08:16:55.596Z,82.10
2018-10-06T08:19:23.423Z,81.30
2018-10-06T08:21:51.137Z,81.30
2018-10-06T08:24:18.828Z,81.10
2018-10-06T08:26:46.699Z,81.10
2018-10-06T08:29:14.416Z,81.00
2018-10-06T08:31:42.172Z,79.50
2018-10-06T08:34:09.917Z,78.80
2018-10-06T08:36:37.644Z,79.30
2018-10-06T08:39:06.521Z,77.50
2018-10-06T08:41:34.359Z,77.90
2018-10-06T08:44:02.080Z,78.00
2018-10-06T08:46:29.757Z,79.30
2018-10-06T08:48:57.504Z,79.10
2018-10-06T08:51:25.391Z,80.40
2018-10-06T08:53:53.066Z,76.70
2018-10-06T08:56:20.901Z,75.40
2018-10-06T08:58:48.875Z,74.90
2018-10-06T09:01:16.540Z,73.80
2018-10-06T09:03:44.245Z,73.20
2018-10-06T09:06:12.149Z,73.70
2018-10-06T09:08:39.829Z,73.50
2018-10-06T09:11:07.577Z,73.00
2018-10-06T09:13:35.263Z,72.30
2018-10-06T09:16:03.041Z,72.20
2018-10-06T09:18:30.770Z,72.60
2018-10-06T09:20:58.909Z,73.60
2018-10-06T09:23:26.637Z,72.00
2018-10-06T09:25:54.425Z,72.30
2018-10-06T09:28:22.293Z,70.40
2018-10-06T09:30:49.928Z,70.00
2018-10-06T09:33:17.698Z,69.60
2018-10-06T09:35:45.683Z,69.60
2018-10-06T09:38:13.762Z,69.50
2018-10-06T09:40:41.529Z,71.00
2018-10-06T09:43:09.325Z,69.70
2018-10-06T09:45:37.045Z,70.30
2018-10-06T09:48:04.873Z,69.10
2018-10-06T09:50:32.781Z,68.40
2018-10-06T09:53:00.492Z,68.50
2018-10-06T09:55:28.407Z,68.30
2018-10-06T09:57:56.156Z,70.10
2018-10-06T10:00:29.267Z,68.00
2018-10-06T10:03:02.497Z,67.60
2018-10-06T10:05:35.924Z,70.80
2018-10-06T10:08:03.577Z,69.50
2018-10-06T10:10:31.254Z,68.60
2018-10-06T10:12:59.013Z,64.10
2018-10-06T10:15:26.722Z,67.60
2018-10-06T10:17:54.453Z,68.90
2018-10-06T10:20:22.130Z,67.40
2018-10-06T10:22:49.957Z,66.40
2018-10-06T10:25:17.601Z,63.90
2018-10-06T10:27:45.297Z,63.30
2018-10-06T10:30:13.677Z,65.40
2018-10-06T10:32:41.638Z,63.40
2018-10-06T10:35:09.310Z,64.00
2018-10-06T10:37:37.017Z,65.50
2018-10-06T10:40:04.904Z,63.20
2018-10-06T10:42:32.625Z,61.20
2018-10-06T10:45:00.289Z,61.70
2018-10-06T10:47:27.957Z,63.00
2018-10-06T10:49:55.697Z,60.90
2018-10-06T10:52:23.397Z,58.60
2018-10-06T10:54:51.076Z,59.20
2018-10-06T10:57:18.794Z,58.90
2018-10-06T10:59:46.558Z,58.10
2018-10-06T11:02:14.305Z,58.90
2018-10-06T11:04:42.052Z,58.80
2018-10-06T11:07:09.725Z,58.20
2018-10-06T11:09:37.464Z,58.00
2018-10-06T11:12:05.139Z,57.50
2018-10-06T11:14:32.840Z,57.40
2018-10-06T11:17:00.523Z,57.60
2018-10-06T11:19:28.256Z,56.60
2018-10-06T11:21:55.964Z,56.10
2018-10-06T11:24:23.644Z,56.20
2018-10-06T11:26:51.349Z,55.60
2018-10-06T11:29:19.069Z,54.90
2018-10-06T11:31:46.789Z,55.10
2018-10-06T11:34:14.468Z,54.50
2018-10-06T11:38:11.628Z,54.20
2018-10-06T11:40:39.305Z,54.10
2018-10-06T11:43:07.017Z,53.40
2018-10-06T11:45:34.733Z,53.10
2018-10-06T11:48:02.409Z,53.40
2018-10-06T11:50:30.179Z,52.10
2018-10-06T11:52:57.841Z,51.70
2018-10-06T11:55:25.557Z,51.90
2018-10-06T11:57:53.217Z,51.90
2018-10-06T12:00:21.161Z,52.40
2018-10-06T12:02:48.732Z,51.60
2018-10-06T12:05:16.589Z,52.40
2018-10-06T12:07:44.269Z,50.90
2018-10-06T12:10:12.004Z,48.60
2018-10-06T12:12:39.775Z,48.60
2018-10-06T12:15:07.473Z,49.00
2018-10-06T12:17:35.198Z,49.70
2018-10-06T12:20:02.948Z,48.20
2018-10-06T12:22:30.649Z,47.70
2018-10-06T12:24:58.371Z,47.00
2018-10-06T12:27:26.096Z,46.10
2018-10-06T12:29:53.775Z,46.00
2018-10-06T12:32:21.445Z,45.30
2018-10-06T12:34:49.443Z,46.10
2018-10-06T12:37:17.044Z,47.10
2018-10-06T12:39:44.745Z,46.20
2018-10-06T12:42:12.465Z,47.50
2018-10-06T12:44:40.184Z,47.30
2018-10-06T12:47:07.909Z,44.70
2018-10-06T12:49:35.609Z,44.10
2018-10-06T12:52:03.301Z,44.10
2018-10-06T12:54:31.013Z,45.20
2018-10-06T12:56:58.689Z,44.30
2018-10-06T12:59:26.353Z,45.60
2018-10-06T13:01:54.061Z,46.00
2018-10-06T13:04:21.732Z,44.00
2018-10-06T13:06:49.481Z,44.60
2018-10-06T13:09:17.137Z,42.50
2018-10-06T13:11:44.879Z,42.90
2018-10-06T13:14:12.555Z,43.90
2018-10-06T13:16:40.221Z,43.70
2018-10-06T13:19:07.936Z,44.90
2018-10-06T13:21:35.618Z,45.30
2018-10-06T13:24:03.336Z,44.30
2018-10-06T13:26:31.021Z,43.80
2018-10-06T13:28:58.836Z,43.80
2018-10-06T13:31:26.546Z,44.60
2018-10-06T13:33:54.217Z,43.30
2018-10-06T13:36:21.881Z,45.90
2018-10-06T13:38:49.610Z,46.20
2018-10-06T13:41:17.294Z,47.20
2018-10-06T13:43:44.994Z,43.80
2018-10-06T13:46:12.715Z,44.60
2018-10-06T13:48:40.447Z,43.60
2018-10-06T13:51:08.286Z,45.10
2018-10-06T13:53:36.029Z,45.90
2018-10-06T13:56:03.763Z,45.40
2018-10-06T13:58:31.480Z,44.20
2018-10-06T14:00:59.142Z,44.10
2018-10-06T14:03:26.851Z,44.60
2018-10-06T14:05:54.532Z,42.50
2018-10-06T14:08:22.245Z,45.10
2018-10-06T14:10:49.924Z,44.70
2018-10-06T14:13:17.681Z,46.00
2018-10-06T14:15:45.373Z,46.30
2018-10-06T14:18:13.081Z,46.30
2018-10-06T14:20:40.894Z,47.00
2018-10-06T14:23:08.741Z,47.60
2018-10-06T14:25:36.494Z,47.50
2018-10-06T14:28:04.161Z,47.80
2018-10-06T14:30:32.133Z,48.10
2018-10-06T14:32:59.809Z,48.20
2018-10-06T14:35:27.477Z,47.90
2018-10-06T14:37:55.190Z,48.70
2018-10-06T14:40:23.061Z,47.60
2018-10-06T14:42:50.786Z,48.20
2018-10-06T14:45:18.460Z,48.20
2018-10-06T14:47:46.224Z,48.70
2018-10-06T14:50:13.972Z,48.90
2018-10-06T14:52:41.662Z,49.00
2018-10-06T14:55:09.417Z,50.80
2018-10-06T14:57:37.573Z,50.10
2018-10-06T15:00:06.591Z,49.80
2018-10-06T15:02:34.398Z,50.60
2018-10-06T15:05:02.149Z,50.10
2018-10-06T15:07:29.872Z,51.50
2018-10-06T15:09:57.590Z,51.00
2018-10-06T15:12:25.468Z,54.70
2018-10-06T15:14:53.196Z,56.50
2018-10-06T15:17:20.917Z,55.00
2018-10-06T15:19:49.627Z,57.20
2018-10-06T15:22:18.875Z,59.30
2018-10-06T15:24:46.893Z,58.60
2018-10-06T15:27:14.612Z,59.00
2018-10-06T15:29:42.347Z,58.30
2018-10-06T15:32:10.032Z,56.40
2018-10-06T15:34:37.710Z,54.90
2018-10-06T15:37:05.437Z,55.70
2018-10-06T15:39:33.130Z,54.50
2018-10-06T15:42:00.894Z,55.50
2018-10-06T15:44:28.605Z,55.10
2018-10-06T15:46:56.445Z,54.40
2018-10-06T15:49:24.153Z,55.50
2018-10-06T15:51:51.825Z,55.20
2018-10-06T15:54:19.621Z,54.80
2018-10-06T15:56:47.392Z,55.80
2018-10-06T15:59:15.052Z,56.60
2018-10-06T16:01:42.760Z,57.30
2018-10-06T16:04:10.561Z,57.10
2018-10-06T16:06:38.332Z,57.70
2018-10-06T16:09:06.390Z,56.40
2018-10-06T16:11:34.101Z,57.30
2018-10-06T16:14:01.805Z,57.70
2018-10-06T16:16:29.529Z,58.30
2018-10-06T16:18:57.257Z,58.30
2018-10-06T16:21:25.037Z,59.30
2018-10-06T16:23:52.691Z,59.20
2018-10-06T16:26:20.360Z,59.10
2018-10-06T16:28:48.078Z,58.90
2018-10-06T16:31:15.786Z,59.60
2018-10-06T16:33:43.454Z,60.00
2018-10-06T16:36:11.130Z,59.90
2018-10-06T16:38:38.888Z,58.90
2018-10-06T16:41:06.659Z,59.80
2018-10-06T16:43:34.322Z,60.20
2018-10-06T16:46:02.025Z,60.10
2018-10-06T16:48:29.713Z,60.90
2018-10-06T16:50:57.433Z,61.10
2018-10-06T16:53:25.108Z,61.90
2018-10-06T16:55:52.792Z,62.70
2018-10-06T16:58:20.566Z,63.60
2018-10-06T17:00:48.289Z,63.90
2018-10-06T17:03:15.953Z,63.70
2018-10-06T17:05:43.668Z,62.90
2018-10-06T17:08:11.381Z,62.40
2018-10-06T17:10:39.041Z,61.90
2018-10-06T17:13:06.749Z,62.00
2018-10-06T17:15:34.436Z,62.30
2018-10-06T17:18:02.198Z,61.40
2018-10-06T17:20:29.905Z,61.40
2018-10-06T17:22:57.594Z,61.00
2018-10-06T17:25:25.290Z,61.20
2018-10-06T17:27:52.969Z,61.00
2018-10-06T17:30:20.692Z,61.00
2018-10-06T17:32:48.389Z,60.90
2018-10-06T17:35:16.109Z,61.00
2018-10-06T17:37:43.809Z,61.10
2018-10-06T17:40:11.557Z,61.20
2018-10-06T17:42:39.313Z,61.30
2018-10-06T17:45:07.273Z,61.40
2018-10-06T17:47:35.024Z,61.50
2018-10-06T17:50:02.952Z,61.80
2018-10-06T17:52:30.497Z,61.70
2018-10-06T17:54:58.242Z,61.80
2018-10-06T17:57:25.984Z,62.00
2018-10-06T17:59:53.661Z,62.40
2018-10-06T18:02:21.382Z,63.60
2018-10-06T18:04:49.146Z,62.60
2018-10-06T18:07:16.781Z,63.20
2018-10-06T18:09:44.613Z,63.20
2018-10-06T18:12:12.377Z,63.70
2018-10-06T18:14:40.155Z,64.10
2018-10-06T18:17:07.795Z,64.60
2018-10-06T18:19:35.477Z,65.40
2018-10-06T18:22:03.180Z,65.90
2018-10-06T18:24:30.893Z,66.00
2018-10-06T18:26:58.631Z,66.90
2018-10-06T18:29:26.395Z,65.70
2018-10-06T18:31:54.004Z,65.80
2018-10-06T18:34:21.715Z,65.80
2018-10-06T18:36:49.524Z,65.50
2018-10-06T18:39:17.117Z,65.30
2018-10-06T18:41:44.834Z,65.20
2018-10-06T18:44:12.517Z,65.70
2018-10-06T18:46:40.265Z,65.50
2018-10-06T18:49:07.975Z,65.20
2018-10-06T18:51:35.745Z,66.20
2018-10-06T18:54:03.439Z,66.90
2018-10-06T18:56:31.125Z,67.70
2018-10-06T18:58:58.881Z,68.30
2018-10-06T19:01:26.581Z,69.20
2018-10-06T19:03:54.376Z,70.10
2018-10-06T19:06:22.065Z,71.00
2018-10-06T19:08:49.729Z,71.90
2018-10-06T19:11:17.464Z,73.00
2018-10-06T19:13:45.133Z,74.00
2018-10-06T19:16:12.861Z,75.10
2018-10-06T19:18:40.535Z,75.80
2018-10-06T19:21:08.277Z,76.10
2018-10-06T19:23:35.957Z,76.70
2018-10-06T19:26:03.669Z,77.70
2018-10-06T19:28:31.356Z,77.90
2018-10-06T19:30:59.113Z,78.30
2018-10-06T19:33:26.790Z,80.00
2018-10-06T19:35:54.501Z,82.00
2018-10-06T19:38:22.180Z,84.40
2018-10-06T19:40:49.889Z,86.30
2018-10-06T19:43:17.553Z,89.80
2018-10-06T19:45:45.330Z,91.60
2018-10-06T19:48:12.971Z,93.30
2018-10-06T19:50:40.681Z,94.30
2018-10-06T19:53:08.389Z,95.50
2018-10-06T19:55:36.089Z,95.30
2018-10-06T19:58:03.812Z,95.90
2018-10-06T20:00:31.521Z,96.70
2018-10-06T20:02:59.225Z,97.10
2018-10-06T20:05:26.892Z,97.70
2018-10-06T20:07:54.648Z,97.80
2018-10-06T20:10:23.233Z,98.40
2018-10-06T20:12:50.900Z,98.80
2018-10-06T20:15:18.581Z,99.80
2018-10-06T20:17:46.293Z,99.90
2018-10-06T20:20:13.989Z,99.90
2018-10-06T20:22:41.782Z,99.90
2018-10-06T20:25:09.473Z,99.90
2018-10-06T20:27:37.182Z,99.90
2018-10-06T20:30:04.940Z,99.90
2018-10-06T20:32:32.649Z,99.90
2018-10-06T20:35:00.419Z,99.90
2018-10-06T20:37:28.125Z,98.50
2018-10-06T20:39:55.937Z,96.50
2018-10-06T20:42:23.542Z,94.70
2018-10-06T20:44:51.273Z,95.20
2018-10-06T20:47:18.969Z,93.70
2018-10-06T20:49:46.646Z,92.60
2018-10-06T20:52:14.409Z,91.90
2018-10-06T20:54:42.122Z,90.80
2018-10-06T20:57:09.796Z,89.30
2018-10-06T20:59:37.533Z,89.40
2018-10-06T21:02:05.346Z,88.10
2018-10-06T21:04:33.060Z,86.90
2018-10-06T21:07:00.754Z,86.00
2018-10-06T21:09:28.465Z,85.60
2018-10-06T21:11:56.207Z,86.30
2018-10-06T21:14:23.934Z,86.00
2018-10-06T21:16:51.604Z,82.90
2018-10-06T21:19:19.307Z,82.30
2018-10-06T21:21:46.977Z,81.80
2018-10-06T21:24:14.685Z,81.90
2018-10-06T21:26:42.353Z,80.70
2018-10-06T21:29:10.131Z,81.10
2018-10-06T21:31:37.818Z,81.30
2018-10-06T21:34:05.563Z,81.70
2018-10-06T21:36:33.281Z,82.50
2018-10-06T21:39:00.981Z,80.30
2018-10-06T21:41:28.685Z,80.50
2018-10-06T21:43:56.436Z,81.00
2018-10-06T21:46:24.153Z,79.60
2018-10-06T21:48:51.835Z,80.90
2018-10-06T21:51:19.511Z,80.30
2018-10-06T21:53:47.224Z,80.40
2018-10-06T21:56:14.952Z,82.50
2018-10-06T21:58:42.705Z,83.30
2018-10-06T22:01:11.585Z,83.40
2018-10-06T22:03:39.949Z,79.10
2018-10-06T22:06:07.745Z,79.10
2018-10-06T22:08:35.613Z,81.80
2018-10-06T22:11:03.300Z,83.50
2018-10-06T22:13:31.001Z,86.60
2018-10-06T22:15:58.685Z,87.30
2018-10-06T22:18:26.669Z,85.20
2018-10-06T22:20:54.376Z,80.40
2018-10-06T22:23:22.092Z,79.90
2018-10-06T22:25:50.077Z,81.00
2018-10-06T22:28:17.784Z,82.70
2018-10-06T22:30:45.472Z,84.50
2018-10-06T22:33:13.173Z,88.00
2018-10-06T22:35:40.915Z,89.50
2018-10-06T22:38:08.624Z,91.90
2018-10-06T22:40:37.205Z,92.30
2018-10-06T22:43:04.907Z,94.50
2018-10-06T22:45:32.669Z,96.70
2018-10-06T22:48:00.349Z,98.90
2018-10-06T22:50:28.118Z,99.90
2018-10-06T22:52:55.830Z,99.90
2018-10-06T22:55:23.505Z,99.90
2018-10-06T22:57:51.208Z,99.90
2018-10-06T23:00:18.885Z,99.90
2018-10-06T23:02:46.596Z,99.90
2018-10-06T23:05:14.269Z,99.90
2018-10-06T23:07:42.037Z,99.90
2018-10-06T23:10:09.709Z,99.90
2018-10-06T23:12:37.425Z,99.90
2018-10-06T23:15:05.170Z,99.90
2018-10-06T23:17:32.843Z,99.90
2018-10-06T23:20:00.557Z,99.90
2018-10-06T23:22:28.285Z,99.90
2018-10-06T23:24:56.006Z,99.90
2018-10-06T23:27:23.721Z,99.90
2018-10-06T23:29:51.384Z,99.90
2018-10-06T23:32:19.096Z,99.90
2018-10-06T23:34:46.772Z,99.90
2018-10-06T23:37:14.480Z,99.90
2018-10-06T23:39:42.161Z,99.90
2018-10-06T23:42:09.959Z,99.90
2018-10-06T23:44:37.668Z,99.90
2018-10-06T23:47:05.387Z,99.90
2018-10-06T23:49:33.085Z,99.90
2018-10-06T23:52:00.748Z,99.90
2018-10-06T23:54:28.443Z,99.90
2018-10-06T23:56:56.137Z,99.90
2018-10-06T23:59:23.802Z,99.90
